createdAt,value
2023-03-30T00:02:26.148Z,98313.73
2023-03-30T00:05:03.281Z,98316.60
2023-03-30T00:07:38.227Z,98318.27
2023-03-30T00:10:11.414Z,98312.39
2023-03-30T00:12:47.200Z,98303.42
2023-03-30T00:15:21.657Z,98306.17
2023-03-30T00:17:55.341Z,98299.59
2023-03-30T00:20:28.185Z,98300.05
2023-03-30T00:23:00.716Z,98294.59
2023-03-30T00:25:33.083Z,98288.38
2023-03-30T00:28:05.041Z,98290.46
2023-03-30T00:30:37.191Z,98285.04
2023-03-30T00:33:09.227Z,98286.92
2023-03-30T00:35:41.883Z,98283.64
2023-03-30T00:38:14.029Z,98278.83
2023-03-30T00:40:53.842Z,98278.00
2023-03-30T00:43:27.988Z,98281.14
2023-03-30T00:46:00.174Z,98277.69
2023-03-30T00:48:36.479Z,98274.42
2023-03-30T00:51:14.103Z,98277.52
2023-03-30T00:53:49.086Z,98275.15
2023-03-30T00:56:27.165Z,98273.52
2023-03-30T00:58:59.378Z,98271.39
2023-03-30T01:01:38.637Z,98271.34
2023-03-30T01:04:12.158Z,98271.91
2023-03-30T01:06:46.464Z,98268.13
2023-03-30T01:09:19.416Z,98271.90
2023-03-30T01:11:52.100Z,98268.24
2023-03-30T01:14:24.557Z,98273.16
2023-03-30T01:17:03.673Z,98271.13
2023-03-30T01:19:56.914Z,98271.59
2023-03-30T01:22:47.699Z,98266.16
2023-03-30T01:25:52.906Z,98264.14
2023-03-30T01:28:38.360Z,98259.63
2023-03-30T01:31:33.400Z,98260.08
2023-03-30T01:34:25.798Z,98247.95
2023-03-30T01:37:28.506Z,98248.92
2023-03-30T01:40:09.983Z,98239.19
2023-03-30T01:42:48.157Z,98245.38
2023-03-30T01:45:28.780Z,98242.36
2023-03-30T01:48:02.949Z,98240.30
2023-03-30T01:50:41.859Z,98241.33
2023-03-30T01:53:19.892Z,98237.05
2023-03-30T01:55:57.770Z,98240.87
2023-03-30T01:58:36.143Z,98234.33
2023-03-30T02:01:10.471Z,98235.91
2023-03-30T02:03:47.299Z,98228.52
2023-03-30T02:06:26.996Z,98230.28
2023-03-30T02:09:01.145Z,98229.02
2023-03-30T02:11:35.241Z,98227.30
2023-03-30T02:14:09.965Z,98223.69
2023-03-30T02:16:46.243Z,98222.38
2023-03-30T02:19:18.334Z,98227.02
2023-03-30T02:21:50.990Z,98227.85
2023-03-30T02:24:27.106Z,98225.16
2023-03-30T02:27:02.758Z,98217.95
2023-03-30T02:29:42.349Z,98212.91
2023-03-30T02:32:20.243Z,98212.41
2023-03-30T02:35:10.414Z,98210.03
2023-03-30T02:38:06.356Z,98204.74
2023-03-30T02:40:52.754Z,98207.09
2023-03-30T02:43:39.103Z,98207.58
2023-03-30T02:46:24.817Z,98211.77
2023-03-30T02:49:09.448Z,98205.67
2023-03-30T02:51:48.285Z,98202.20
2023-03-30T02:54:33.797Z,98199.95
2023-03-30T02:57:34.325Z,98195.46
2023-03-30T03:00:33.586Z,98186.85
2023-03-30T03:03:12.551Z,98179.89
2023-03-30T03:05:45.329Z,98180.27
2023-03-30T03:08:25.473Z,98182.33
2023-03-30T03:10:58.608Z,98175.48
2023-03-30T03:13:32.342Z,98170.32
2023-03-30T03:16:05.505Z,98167.89
2023-03-30T03:18:40.096Z,98162.00
2023-03-30T03:21:14.090Z,98165.36
2023-03-30T03:23:48.539Z,98158.40
2023-03-30T03:26:22.841Z,98165.11
2023-03-30T03:28:55.236Z,98160.14
2023-03-30T03:31:28.644Z,98156.29
2023-03-30T03:34:00.923Z,98153.12
2023-03-30T03:36:53.496Z,98150.63
2023-03-30T03:39:27.142Z,98145.42
2023-03-30T03:42:05.661Z,98146.60
2023-03-30T03:44:40.591Z,98132.51
2023-03-30T03:47:16.010Z,98124.61
2023-03-30T03:49:50.139Z,98118.48
2023-03-30T03:52:22.334Z,98120.18
2023-03-30T03:54:54.831Z,98122.06
2023-03-30T03:57:27.802Z,98116.42
2023-03-30T04:00:00.112Z,98111.45
2023-03-30T04:02:32.377Z,98117.35
2023-03-30T04:05:04.825Z,98120.42
2023-03-30T04:07:37.053Z,98108.77
2023-03-30T04:10:15.050Z,98099.19
2023-03-30T04:13:22.273Z,98102.40
2023-03-30T04:16:20.679Z,98101.23
2023-03-30T04:19:01.474Z,98100.86
2023-03-30T04:21:53.191Z,98089.70
2023-03-30T04:25:01.113Z,98090.04
2023-03-30T04:27:52.555Z,98091.14
2023-03-30T04:30:59.015Z,98089.63
2023-03-30T04:33:53.289Z,98086.55
2023-03-30T04:36:58.168Z,98087.91
2023-03-30T04:39:30.447Z,98086.48
2023-03-30T04:42:30.251Z,98080.98
2023-03-30T04:45:25.006Z,98077.54
2023-03-30T04:48:14.168Z,98072.17
2023-03-30T04:50:50.675Z,98069.89
2023-03-30T04:53:43.001Z,98061.95
2023-03-30T04:56:33.486Z,98058.47
2023-03-30T04:59:26.634Z,98049.50
2023-03-30T05:02:31.417Z,98052.06
2023-03-30T05:05:26.344Z,98049.89
2023-03-30T05:08:18.605Z,98043.48
2023-03-30T05:11:14.013Z,98045.39
2023-03-30T05:14:08.802Z,98043.52
2023-03-30T05:16:59.869Z,98042.88
2023-03-30T05:20:08.575Z,98042.90
2023-03-30T05:23:11.248Z,98044.81
2023-03-30T05:26:04.077Z,98036.75
2023-03-30T05:28:55.489Z,98038.67
2023-03-30T05:31:46.384Z,98039.63
2023-03-30T05:34:42.131Z,98040.29
2023-03-30T05:37:37.340Z,98039.09
2023-03-30T05:40:47.762Z,98031.76
2023-03-30T05:43:41.106Z,98032.67
2023-03-30T05:46:13.287Z,98033.80
2023-03-30T05:49:18.726Z,98028.10
2023-03-30T05:52:11.765Z,98025.98
2023-03-30T05:55:02.178Z,98029.30
2023-03-30T05:57:50.051Z,98030.07
2023-03-30T06:00:33.393Z,98031.61
2023-03-30T06:03:10.380Z,98031.55
2023-03-30T06:05:43.886Z,98024.33
2023-03-30T06:08:20.072Z,98020.05
2023-03-30T06:10:57.827Z,98018.63
2023-03-30T06:13:32.595Z,98007.73
2023-03-30T06:16:05.282Z,98001.15
2023-03-30T06:18:37.314Z,97995.86
2023-03-30T06:21:14.043Z,97991.09
2023-03-30T06:24:15.772Z,97996.41
2023-03-30T06:26:48.686Z,97985.61
2023-03-30T06:29:21.051Z,97983.83
2023-03-30T06:31:53.437Z,97980.54
2023-03-30T06:35:00.817Z,97977.73
2023-03-30T06:37:34.355Z,97975.62
2023-03-30T06:40:13.567Z,97974.46
2023-03-30T06:42:47.135Z,97976.02
2023-03-30T06:45:27.867Z,97972.09
2023-03-30T06:48:00.490Z,97967.61
2023-03-30T06:50:33.311Z,97962.89
2023-03-30T06:53:18.359Z,97953.80
2023-03-30T06:55:57.088Z,97949.94
2023-03-30T06:58:31.490Z,97953.24
2023-03-30T07:01:12.087Z,97954.48
2023-03-30T07:04:13.473Z,97955.92
2023-03-30T07:07:05.625Z,97953.89
2023-03-30T07:09:54.057Z,97949.07
2023-03-30T07:12:27.228Z,97948.85
2023-03-30T07:14:59.808Z,97947.95
2023-03-30T07:17:32.765Z,97949.67
2023-03-30T07:20:06.339Z,97960.08
2023-03-30T07:22:40.003Z,97969.58
2023-03-30T07:25:12.687Z,97970.74
2023-03-30T07:27:45.409Z,97976.65
2023-03-30T07:30:22.862Z,97976.98
2023-03-30T07:32:58.899Z,97973.64
2023-03-30T07:35:31.156Z,97969.80
2023-03-30T07:38:04.244Z,97965.73
2023-03-30T07:40:43.692Z,97965.96
2023-03-30T07:43:16.485Z,97962.59
2023-03-30T07:45:49.490Z,97954.59
2023-03-30T07:48:28.320Z,97956.12
2023-03-30T07:51:05.196Z,97953.16
2023-03-30T07:53:39.146Z,97936.86
2023-03-30T07:56:18.585Z,97911.60
2023-03-30T07:58:52.751Z,97892.58
2023-03-30T08:01:25.618Z,97866.90
2023-03-30T08:04:14.601Z,97854.92
2023-03-30T08:06:47.660Z,97844.71
2023-03-30T08:09:21.126Z,97830.20
2023-03-30T08:11:53.305Z,97825.89
2023-03-30T08:14:27.387Z,97822.61
2023-03-30T08:16:59.532Z,97824.29
2023-03-30T08:19:32.816Z,97826.91
2023-03-30T08:22:05.139Z,97822.02
2023-03-30T08:24:38.025Z,97816.74
2023-03-30T08:27:10.864Z,97799.10
2023-03-30T08:29:46.018Z,97801.44
2023-03-30T08:32:18.402Z,97802.73
2023-03-30T08:34:52.371Z,97788.34
2023-03-30T08:37:25.191Z,97798.52
2023-03-30T08:39:57.268Z,97790.09
2023-03-30T08:42:48.178Z,97796.96
2023-03-30T08:45:20.811Z,97788.64
2023-03-30T08:47:54.370Z,97791.20
2023-03-30T08:50:34.423Z,97791.34
2023-03-30T08:53:08.345Z,97779.16
2023-03-30T08:55:44.640Z,97774.47
2023-03-30T08:58:27.337Z,97757.70
2023-03-30T09:01:09.433Z,97755.78
2023-03-30T09:03:46.742Z,97762.92
2023-03-30T09:06:26.803Z,97750.88
2023-03-30T09:08:59.058Z,97746.88
2023-03-30T09:11:35.748Z,97740.77
2023-03-30T09:14:16.690Z,97741.29
2023-03-30T09:16:55.193Z,97719.70
2023-03-30T09:19:36.766Z,97718.99
2023-03-30T09:22:14.940Z,97720.83
2023-03-30T09:24:47.378Z,97723.58
2023-03-30T09:27:27.163Z,97722.25
2023-03-30T09:30:04.905Z,97727.23
2023-03-30T09:32:47.913Z,97730.08
2023-03-30T09:35:26.182Z,97723.54
2023-03-30T09:37:58.361Z,97717.77
2023-03-30T09:40:47.505Z,97720.84
2023-03-30T09:43:26.740Z,97688.88
2023-03-30T09:46:03.623Z,97676.23
2023-03-30T09:48:42.671Z,97668.64
2023-03-30T09:51:25.279Z,97680.66
2023-03-30T09:54:03.811Z,97695.59
2023-03-30T09:56:47.057Z,97696.67
2023-03-30T09:59:35.443Z,97703.05
2023-03-30T10:02:21.673Z,97708.34
2023-03-30T10:05:03.481Z,97713.73
2023-03-30T10:07:37.984Z,97695.21
2023-03-30T10:10:28.609Z,97689.25
2023-03-30T10:13:09.488Z,97695.67
2023-03-30T10:15:53.543Z,97693.55
2023-03-30T10:18:39.098Z,97698.48
2023-03-30T10:21:22.846Z,97698.90
2023-03-30T10:24:09.690Z,97688.88
2023-03-30T10:26:45.993Z,97699.05
2023-03-30T10:29:21.881Z,97703.23
2023-03-30T10:31:59.133Z,97704.46
2023-03-30T10:34:38.401Z,97709.10
2023-03-30T10:37:16.267Z,97705.28
2023-03-30T10:39:49.805Z,97698.67
2023-03-30T10:42:26.615Z,97684.70
2023-03-30T10:45:01.644Z,97692.54
2023-03-30T10:47:46.178Z,97700.83
2023-03-30T10:50:28.727Z,97698.77
2023-03-30T10:53:13.983Z,97697.29
2023-03-30T10:55:56.724Z,97674.13
2023-03-30T10:58:43.048Z,97664.92
2023-03-30T11:01:23.354Z,97663.45
2023-03-30T11:04:02.727Z,97659.02
2023-03-30T11:06:44.057Z,97653.42
2023-03-30T11:09:26.158Z,97656.80
2023-03-30T11:12:02.761Z,97666.96
2023-03-30T11:14:42.748Z,97665.23
2023-03-30T11:17:22.588Z,97663.02
2023-03-30T11:19:57.456Z,97659.27
2023-03-30T11:22:41.794Z,97644.40
2023-03-30T11:25:21.456Z,97645.88
2023-03-30T11:28:01.061Z,97655.03
2023-03-30T11:30:35.024Z,97662.10
2023-03-30T11:33:18.888Z,97664.98
2023-03-30T11:35:54.705Z,97673.09
2023-03-30T11:38:35.466Z,97684.56
2023-03-30T11:41:14.733Z,97688.09
2023-03-30T11:43:46.993Z,97688.64
2023-03-30T11:46:24.565Z,97681.96
2023-03-30T11:49:20.514Z,97678.99
2023-03-30T11:52:04.583Z,97681.75
2023-03-30T11:55:03.063Z,97683.66
2023-03-30T11:57:44.091Z,97688.27
2023-03-30T12:00:43.654Z,97700.13
2023-03-30T12:03:43.191Z,97699.36
2023-03-30T12:06:31.886Z,97702.08
2023-03-30T12:09:27.599Z,97702.12
2023-03-30T12:12:06.691Z,97698.38
2023-03-30T12:14:49.031Z,97695.90
2023-03-30T12:17:37.831Z,97701.13
2023-03-30T12:20:19.368Z,97691.75
2023-03-30T12:22:56.877Z,97694.92
2023-03-30T12:25:36.416Z,97700.35
2023-03-30T12:28:14.944Z,97697.69
2023-03-30T12:30:59.523Z,97700.02
2023-03-30T12:33:38.275Z,97699.67
2023-03-30T12:36:26.245Z,97698.89
2023-03-30T12:39:02.425Z,97704.22
2023-03-30T12:41:44.644Z,97706.57
2023-03-30T12:44:40.607Z,97709.45
2023-03-30T12:47:27.956Z,97700.73
2023-03-30T12:50:11.087Z,97701.50
2023-03-30T12:52:53.993Z,97705.33
2023-03-30T12:55:42.405Z,97706.69
2023-03-30T12:58:48.698Z,97710.95
2023-03-30T13:01:34.628Z,97711.17
2023-03-30T13:04:10.776Z,97704.86
2023-03-30T13:06:52.656Z,97707.16
2023-03-30T13:09:52.597Z,97713.29
2023-03-30T13:12:39.256Z,97710.77
2023-03-30T13:15:36.031Z,97714.63
2023-03-30T13:18:33.056Z,97712.55
2023-03-30T13:21:24.067Z,97721.48
2023-03-30T13:24:23.669Z,97730.00
2023-03-30T13:26:55.559Z,97733.52
2023-03-30T13:29:31.715Z,97734.23
2023-03-30T13:32:16.628Z,97725.38
2023-03-30T13:35:09.097Z,97735.73
2023-03-30T13:38:03.055Z,97732.73
2023-03-30T13:40:57.872Z,97732.81
2023-03-30T13:43:50.511Z,97733.54
2023-03-30T13:46:28.466Z,97727.48
2023-03-30T13:49:15.737Z,97723.33
2023-03-30T13:51:49.184Z,97725.92
2023-03-30T13:54:26.654Z,97717.73
2023-03-30T13:57:05.700Z,97723.70
2023-03-30T13:59:41.518Z,97723.30
2023-03-30T14:02:17.821Z,97719.84
2023-03-30T14:04:50.582Z,97711.58
2023-03-30T14:07:24.279Z,97704.62
2023-03-30T14:10:16.096Z,97700.32
2023-03-30T14:12:49.898Z,97699.66
2023-03-30T14:15:29.189Z,97697.96
2023-03-30T14:18:02.793Z,97694.48
2023-03-30T14:20:50.150Z,97688.63
2023-03-30T14:23:28.285Z,97676.70
2023-03-30T14:26:03.472Z,97675.30
2023-03-30T14:28:38.602Z,97670.02
2023-03-30T14:31:17.241Z,97666.59
2023-03-30T14:33:50.019Z,97666.42
2023-03-30T14:36:23.107Z,97664.41
2023-03-30T14:38:57.745Z,97658.99
2023-03-30T14:41:31.644Z,97657.07
2023-03-30T14:44:06.408Z,97657.90
2023-03-30T14:46:43.040Z,97655.67
2023-03-30T14:49:21.756Z,97654.08
2023-03-30T14:52:00.801Z,97657.04
2023-03-30T14:54:33.289Z,97654.67
2023-03-30T14:57:07.797Z,97651.32
2023-03-30T14:59:46.258Z,97649.69
2023-03-30T15:02:22.402Z,97652.65
2023-03-30T15:04:56.565Z,97652.02
2023-03-30T15:07:33.192Z,97650.14
2023-03-30T15:10:06.402Z,97649.00
2023-03-30T15:12:41.916Z,97646.54
2023-03-30T15:15:18.647Z,97648.85
2023-03-30T15:17:52.385Z,97644.89
2023-03-30T15:20:27.156Z,97639.44
2023-03-30T15:23:00.905Z,97643.52
2023-03-30T15:25:35.592Z,97645.21
2023-03-30T15:28:10.660Z,97642.54
2023-03-30T15:30:44.909Z,97634.38
2023-03-30T15:33:28.100Z,97632.80
2023-03-30T15:36:07.485Z,97630.18
2023-03-30T15:38:47.656Z,97628.80
2023-03-30T15:41:23.457Z,97622.05
2023-03-30T15:44:00.496Z,97629.93
2023-03-30T15:46:36.881Z,97627.23
2023-03-30T15:49:11.882Z,97618.70
2023-03-30T15:51:47.434Z,97617.58
2023-03-30T15:54:22.627Z,97623.21
2023-03-30T15:57:03.958Z,97622.55
2023-03-30T15:59:41.320Z,97627.40
2023-03-30T16:02:21.906Z,97629.74
2023-03-30T16:04:52.487Z,97628.63
2023-03-30T16:07:26.622Z,97630.72
2023-03-30T16:09:58.645Z,97632.11
2023-03-30T16:12:32.304Z,97638.08
2023-03-30T16:15:04.916Z,97628.30
2023-03-30T16:17:37.505Z,97619.54
2023-03-30T16:20:17.671Z,97614.48
2023-03-30T16:22:48.734Z,97597.52
2023-03-30T16:25:21.337Z,97591.85
2023-03-30T16:27:55.841Z,97600.20
2023-03-30T16:30:31.172Z,97600.81
2023-03-30T16:33:03.364Z,97594.67
2023-03-30T16:35:37.664Z,97582.09
2023-03-30T16:38:10.802Z,97572.75
2023-03-30T16:40:44.766Z,97578.36
2023-03-30T16:43:16.861Z,97567.81
2023-03-30T16:45:49.065Z,97561.02
2023-03-30T16:48:24.443Z,97552.40
2023-03-30T16:50:57.548Z,97558.30
2023-03-30T16:53:32.062Z,97559.85
2023-03-30T16:56:04.156Z,97551.95
2023-03-30T16:58:36.468Z,97536.27
2023-03-30T17:01:13.382Z,97528.63
2023-03-30T17:03:45.584Z,97522.42
2023-03-30T17:06:17.637Z,97523.10
2023-03-30T17:08:50.063Z,97522.98
2023-03-30T17:11:22.107Z,97517.83
2023-03-30T17:13:54.105Z,97511.31
2023-03-30T17:16:29.310Z,97492.50
2023-03-30T17:19:01.433Z,97489.16
2023-03-30T17:21:33.423Z,97486.13
2023-03-30T17:24:05.717Z,97484.44
2023-03-30T17:26:37.985Z,97476.00
2023-03-30T17:29:10.188Z,97481.66
2023-03-30T17:31:46.092Z,97487.36
2023-03-30T17:34:18.595Z,97515.09
2023-03-30T17:36:50.753Z,97542.94
2023-03-30T17:39:22.780Z,97563.98
2023-03-30T17:41:54.826Z,97561.55
2023-03-30T17:44:28.117Z,97570.98
2023-03-30T17:47:00.615Z,97565.23
2023-03-30T17:49:32.671Z,97581.39
2023-03-30T17:52:04.726Z,97590.45
2023-03-30T17:54:36.996Z,97587.40
2023-03-30T17:57:09.901Z,97599.69
2023-03-30T17:59:42.242Z,97597.52
2023-03-30T18:02:15.087Z,97597.81
2023-03-30T18:04:48.220Z,97588.92
2023-03-30T18:07:20.993Z,97594.75
2023-03-30T18:09:53.419Z,97586.17
2023-03-30T18:12:25.931Z,97585.50
2023-03-30T18:14:58.181Z,97578.92
2023-03-30T18:17:30.485Z,97574.46
2023-03-30T18:20:02.874Z,97578.45
2023-03-30T18:22:36.753Z,97580.46
2023-03-30T18:25:18.995Z,97573.84
2023-03-30T18:27:58.028Z,97575.45
2023-03-30T18:30:32.724Z,97578.18
2023-03-30T18:33:06.810Z,97574.42
2023-03-30T18:35:39.956Z,97570.66
2023-03-30T18:38:13.532Z,97565.77
2023-03-30T18:40:49.457Z,97563.23
2023-03-30T18:43:21.964Z,97563.27
2023-03-30T18:45:54.545Z,97559.73
2023-03-30T18:48:26.714Z,97557.64
2023-03-30T18:51:01.333Z,97549.63
2023-03-30T18:53:33.669Z,97548.27
2023-03-30T18:56:06.900Z,97550.59
2023-03-30T18:58:42.140Z,97542.48
2023-03-30T19:01:16.296Z,97537.64
2023-03-30T19:03:49.589Z,97536.61
2023-03-30T19:06:26.015Z,97544.94
2023-03-30T19:08:58.393Z,97547.09
2023-03-30T19:11:32.254Z,97544.40
2023-03-30T19:14:04.590Z,97539.40
2023-03-30T19:16:37.129Z,97539.29
2023-03-30T19:19:14.920Z,97538.06
2023-03-30T19:21:55.082Z,97534.08
2023-03-30T19:24:27.189Z,97533.50
2023-03-30T19:26:59.285Z,97533.73
2023-03-30T19:29:31.289Z,97531.27
2023-03-30T19:32:03.371Z,97528.05
2023-03-30T19:34:35.477Z,97517.95
2023-03-30T19:37:08.858Z,97516.52
2023-03-30T19:39:43.664Z,97520.45
2023-03-30T19:42:15.640Z,97523.41
2023-03-30T19:44:47.614Z,97517.20
2023-03-30T19:47:19.506Z,97517.75
2023-03-30T19:49:51.487Z,97523.77
2023-03-30T19:52:23.457Z,97516.33
2023-03-30T19:54:55.757Z,97516.11
2023-03-30T19:57:27.809Z,97515.83
2023-03-30T20:00:00.251Z,97513.24
2023-03-30T20:02:32.311Z,97514.80
2023-03-30T20:05:04.596Z,97515.21
2023-03-30T20:07:36.824Z,97504.86
2023-03-30T20:10:12.330Z,97501.50
2023-03-30T20:12:44.324Z,97497.83
2023-03-30T20:15:17.691Z,97497.30
2023-03-30T20:17:49.725Z,97498.16
2023-03-30T20:20:25.639Z,97487.27
2023-03-30T20:22:57.817Z,97486.77
2023-03-30T20:25:29.896Z,97491.38
2023-03-30T20:28:02.295Z,97483.48
2023-03-30T20:30:34.337Z,97471.59
2023-03-30T20:33:08.019Z,97461.33
2023-03-30T20:35:43.729Z,97455.36
2023-03-30T20:38:15.792Z,97459.17
2023-03-30T20:40:57.125Z,97457.45
2023-03-30T20:43:31.775Z,97456.04
2023-03-30T20:46:05.717Z,97458.77
2023-03-30T20:48:39.300Z,97460.67
2023-03-30T20:51:13.913Z,97454.58
2023-03-30T20:53:46.064Z,97459.13
2023-03-30T20:56:18.661Z,97468.39
2023-03-30T20:58:51.143Z,97468.65
2023-03-30T21:01:26.480Z,97471.45
2023-03-30T21:04:05.862Z,97470.31
2023-03-30T21:06:38.159Z,97468.94
2023-03-30T21:09:17.702Z,97470.64
2023-03-30T21:11:50.601Z,97470.51
2023-03-30T21:14:26.478Z,97466.02
2023-03-30T21:16:58.493Z,97470.90
2023-03-30T21:19:30.854Z,97472.30
2023-03-30T21:22:03.461Z,97468.84
2023-03-30T21:24:35.423Z,97466.33
2023-03-30T21:27:07.424Z,97465.61
2023-03-30T21:29:39.352Z,97465.74
2023-03-30T21:32:11.376Z,97465.70
2023-03-30T21:34:43.298Z,97465.48
2023-03-30T21:37:15.527Z,97465.73
2023-03-30T21:39:47.502Z,97464.29
2023-03-30T21:42:19.447Z,97468.54
2023-03-30T21:44:51.870Z,97469.97
2023-03-30T21:47:23.877Z,97477.56
2023-03-30T21:49:55.872Z,97485.80
2023-03-30T21:52:28.958Z,97500.36
2023-03-30T21:55:00.931Z,97496.26
2023-03-30T21:57:34.331Z,97495.88
2023-03-30T22:00:10.201Z,97502.10
2023-03-30T22:02:44.434Z,97498.67
2023-03-30T22:05:16.670Z,97490.71
2023-03-30T22:07:48.648Z,97482.85
2023-03-30T22:10:20.776Z,97482.58
2023-03-30T22:12:52.857Z,97480.18
2023-03-30T22:15:24.915Z,97475.90
2023-03-30T22:17:57.220Z,97472.15
2023-03-30T22:20:29.824Z,97476.95
2023-03-30T22:23:02.042Z,97468.13
2023-03-30T22:25:33.936Z,97463.06
2023-03-30T22:28:08.746Z,97463.18
2023-03-30T22:30:43.483Z,97462.11
2023-03-30T22:33:17.404Z,97466.61
2023-03-30T22:35:50.107Z,97458.58
2023-03-30T22:38:22.207Z,97459.23
2023-03-30T22:41:03.700Z,97450.73
2023-03-30T22:43:37.641Z,97449.70
2023-03-30T22:46:10.363Z,97449.45
2023-03-30T22:48:42.694Z,97446.70
2023-03-30T22:51:15.195Z,97446.27
2023-03-30T22:53:47.160Z,97457.11
2023-03-30T22:56:19.273Z,97465.31
2023-03-30T22:58:51.673Z,97460.77
2023-03-30T23:01:23.846Z,97462.71
2023-03-30T23:03:55.970Z,97459.45
2023-03-30T23:06:28.070Z,97462.85
2023-03-30T23:09:01.573Z,97470.69
2023-03-30T23:11:34.358Z,97471.66
2023-03-30T23:14:06.303Z,97464.48
2023-03-30T23:16:38.458Z,97466.44
2023-03-30T23:19:11.434Z,97472.36
2023-03-30T23:21:44.708Z,97481.02
2023-03-30T23:24:16.642Z,97480.80
2023-03-30T23:26:50.060Z,97486.76
2023-03-30T23:29:22.138Z,97489.92
2023-03-30T23:31:54.735Z,97489.70
2023-03-30T23:34:27.086Z,97487.50
2023-03-30T23:37:00.289Z,97487.44
2023-03-30T23:39:32.950Z,97485.06
2023-03-30T23:42:05.242Z,97484.41
2023-03-30T23:44:37.292Z,97484.95
2023-03-30T23:47:09.305Z,97484.45
2023-03-30T23:49:41.732Z,97487.15
2023-03-30T23:52:13.856Z,97484.61
2023-03-30T23:54:46.024Z,97489.98
2023-03-30T23:57:18.109Z,97486.27
2023-03-30T23:59:50.173Z,97484.58
